Time;durP1;ratioP1;P1;durP2;ratioP2;P2;SDS_P1;SDS_P2;PMS_P1;PMS_P2;Temp;Humidity;BMP_temperature;BMP_pressure;BME280_temperature;BME280_humidity;BME280_pressure;Samples;Min_cycle;Max_cycle;Signal;HPM_P1;HPM_P2
2022/09/08 00:02:08;;;;;;;3.88;2.50;;;19.50;91.80;;;;;;5090670;28;20201;-85
2022/09/08 00:04:35;;;;;;;4.63;2.40;;;19.40;92.20;;;;;;5101005;28;20193;-84
2022/09/08 00:07:02;;;;;;;6.55;2.10;;;19.30;92.50;;;;;;5097720;28;20243;-83
2022/09/08 00:09:30;;;;;;;3.55;2.53;;;19.20;92.40;;;;;;5096964;28;20211;-86
2022/09/08 00:11:57;;;;;;;2.50;2.08;;;19.10;92.70;;;;;;5097085;28;20204;-84
2022/09/08 00:14:24;;;;;;;5.72;2.20;;;19.00;93.00;;;;;;5091437;28;20204;-87
2022/09/08 00:16:52;;;;;;;3.75;2.03;;;18.90;93.60;;;;;;5093889;28;20204;-87
2022/09/08 00:19:19;;;;;;;5.32;2.33;;;19.00;93.40;;;;;;5099239;28;20672;-89
2022/09/08 00:21:46;;;;;;;3.75;2.10;;;19.00;93.50;;;;;;5093567;28;20189;-88
2022/09/08 00:24:13;;;;;;;3.42;2.10;;;18.80;93.90;;;;;;5088177;28;20208;-87
2022/09/08 00:26:40;;;;;;;4.43;2.20;;;18.80;94.20;;;;;;5090881;28;21279;-87
2022/09/08 00:29:07;;;;;;;3.20;2.20;;;18.70;94.50;;;;;;5092341;28;20200;-87
2022/09/08 00:31:38;;;;;;;2.60;1.95;;;18.80;95.10;;;;;;5088842;28;20204;-87
2022/09/08 00:34:06;;;;;;;8.35;2.47;;;18.80;94.70;;;;;;5088364;28;20196;-87
2022/09/08 00:36:33;;;;;;;4.07;1.98;;;18.80;94.80;;;;;;5090718;28;20205;-87
2022/09/08 00:39:01;;;;;;;4.68;2.58;;;18.70;94.80;;;;;;5090852;28;20250;-86
2022/09/08 00:41:29;;;;;;;4.05;2.08;;;18.70;94.70;;;;;;5090273;28;20196;-88
2022/09/08 00:44:00;;;;;;;4.00;2.30;;;18.60;94.90;;;;;;5086406;28;20216;-86
2022/09/08 00:46:34;;;;;;;3.90;2.50;;;18.60;94.80;;;;;;5089431;28;20311;-87
2022/09/08 00:49:09;;;;;;;5.53;2.05;;;18.60;94.80;;;;;;5096693;28;20208;-88
2022/09/08 00:51:38;;;;;;;4.13;2.00;;;18.60;94.80;;;;;;5094507;28;20203;-88
2022/09/08 00:54:06;;;;;;;2.50;1.98;;;18.50;95.10;;;;;;5090689;28;20197;-87
2022/09/08 00:56:33;;;;;;;4.07;2.40;;;18.40;95.40;;;;;;5089964;28;21002;-87
2022/09/08 00:59:02;;;;;;;3.50;2.20;;;18.50;95.30;;;;;;5092358;28;20643;-88
2022/09/08 01:01:29;;;;;;;5.20;2.30;;;18.60;95.10;;;;;;5087139;28;20209;-87
2022/09/08 01:03:56;;;;;;;7.22;2.42;;;18.50;95.50;;;;;;5092354;28;20196;-86
2022/09/08 01:15:11;;;;;;;3.35;2.30;;;18.50;95.40;;;;;;5047179;28;20611;-87
2022/09/08 01:17:39;;;;;;;3.38;2.20;;;18.40;95.70;;;;;;5045585;28;20669;-87
2022/09/08 01:20:08;;;;;;;4.65;2.53;;;18.50;95.80;;;;;;5043825;28;20195;-87
2022/09/08 01:23:02;;;;;;;4.20;2.60;;;18.50;96.00;;;;;;5041803;28;20700;-86
2022/09/08 01:25:57;;;;;;;3.70;2.60;;;18.40;96.00;;;;;;5038787;28;20217;-88
2022/09/08 01:28:29;;;;;;;5.25;3.03;;;18.50;96.20;;;;;;5045073;28;20209;-87
2022/09/08 01:30:57;;;;;;;3.35;2.28;;;18.50;95.90;;;;;;5046754;28;20202;-86
2022/09/08 01:33:23;;;;;;;3.83;2.70;;;18.50;95.90;;;;;;5050542;28;20297;-87
2022/09/08 01:35:50;;;;;;;3.05;2.10;;;18.50;96.50;;;;;;5052043;28;20202;-86
2022/09/08 01:38:23;;;;;;;5.32;3.08;;;18.40;96.40;;;;;;5052400;28;20674;-86
2022/09/08 01:40:50;;;;;;;3.83;2.50;;;18.40;96.40;;;;;;5051610;28;20204;-86
2022/09/08 01:43:17;;;;;;;5.45;3.00;;;18.50;96.10;;;;;;5051681;28;20215;-87
2022/09/08 01:45:45;;;;;;;5.85;2.20;;;18.40;96.40;;;;;;5051937;28;20225;-86
2022/09/08 01:48:12;;;;;;;5.47;3.00;;;18.30;97.00;;;;;;5051383;28;20718;-87
2022/09/08 01:50:39;;;;;;;7.03;3.60;;;18.20;97.70;;;;;;5090383;28;20197;-86
2022/09/08 01:53:11;;;;;;;2.78;2.47;;;18.20;97.70;;;;;;5093048;28;20193;-86
2022/09/08 01:55:38;;;;;;;5.32;2.90;;;18.10;97.60;;;;;;5094710;28;20568;-86
2022/09/08 01:58:05;;;;;;;3.53;2.50;;;18.00;97.90;;;;;;5093181;28;20192;-86
2022/09/08 02:00:31;;;;;;;6.22;2.80;;;18.00;98.00;;;;;;5094335;28;20200;-86
2022/09/08 02:03:00;;;;;;;4.43;2.65;;;18.00;98.50;;;;;;5093964;28;20207;-86
2022/09/08 02:05:26;;;;;;;7.50;3.70;;;18.00;98.50;;;;;;5094241;28;20193;-87
2022/09/08 02:07:53;;;;;;;3.80;2.38;;;17.90;98.30;;;;;;5090426;28;20215;-87
2022/09/08 02:10:23;;;;;;;4.05;2.45;;;17.90;97.90;;;;;;5090190;28;20200;-87
2022/09/08 02:12:50;;;;;;;4.18;2.35;;;17.90;98.10;;;;;;5094464;28;20204;-86
2022/09/08 02:15:17;;;;;;;3.00;2.40;;;17.80;98.20;;;;;;5098812;28;20687;-86
2022/09/08 02:17:44;;;;;;;2.75;2.47;;;17.60;98.60;;;;;;5092403;28;20227;-86
2022/09/08 02:20:13;;;;;;;3.60;2.30;;;17.60;98.80;;;;;;5093031;28;20677;-86
2022/09/08 02:22:40;;;;;;;6.43;2.10;;;17.50;98.90;;;;;;5091512;28;20197;-86
2022/09/08 02:25:08;;;;;;;6.45;2.92;;;17.50;98.90;;;;;;5088941;28;20200;-86
2022/09/08 02:27:34;;;;;;;3.63;2.38;;;17.50;99.00;;;;;;5093295;28;20605;-87
2022/09/08 02:30:01;;;;;;;3.13;2.08;;;17.50;99.00;;;;;;5088685;28;20651;-86
2022/09/08 02:32:28;;;;;;;3.88;2.10;;;17.50;98.30;;;;;;5093619;28;20279;-86
2022/09/08 02:34:55;;;;;;;2.90;1.70;;;17.40;98.30;;;;;;5094633;28;20197;-87
2022/09/08 02:37:24;;;;;;;2.53;1.73;;;17.40;98.40;;;;;;5094729;28;20208;-86
2022/09/08 02:39:51;;;;;;;3.28;1.73;;;17.30;98.60;;;;;;5093049;28;20200;-87
2022/09/08 02:42:18;;;;;;;2.63;2.17;;;17.30;98.90;;;;;;5093544;28;20200;-85
2022/09/08 02:44:45;;;;;;;2.72;1.80;;;17.30;98.80;;;;;;5094557;28;20224;-87
2022/09/08 02:47:12;;;;;;;2.30;1.40;;;17.30;98.40;;;;;;5093368;28;20568;-86
2022/09/08 02:49:41;;;;;;;3.00;1.80;;;17.30;98.40;;;;;;5093092;28;20226;-86
2022/09/08 02:52:08;;;;;;;4.18;1.88;;;17.20;98.40;;;;;;5090262;28;20205;-86
2022/09/08 02:54:37;;;;;;;2.10;1.30;;;17.30;98.00;;;;;;5093651;28;20197;-86
2022/09/08 02:57:04;;;;;;;2.67;2.03;;;17.30;97.40;;;;;;5088646;28;20665;-86
2022/09/08 02:59:35;;;;;;;2.38;1.50;;;17.30;97.90;;;;;;5095307;28;20197;-87
2022/09/08 03:02:02;;;;;;;2.88;1.50;;;17.30;97.70;;;;;;5093734;28;20208;-85
2022/09/08 03:04:29;;;;;;;2.28;1.27;;;17.40;97.50;;;;;;5090170;28;20189;-87
2022/09/08 03:06:55;;;;;;;3.30;1.60;;;17.50;97.50;;;;;;5094588;28;20224;-86
2022/09/08 03:09:23;;;;;;;5.63;1.40;;;17.50;97.50;;;;;;5093581;28;20707;-87
2022/09/08 03:12:00;;;;;;;3.20;1.90;;;17.60;97.10;;;;;;5093549;28;20204;-87
2022/09/08 03:14:28;;;;;;;3.97;1.50;;;17.60;97.50;;;;;;5092322;28;20655;-86
2022/09/08 03:16:56;;;;;;;3.33;1.50;;;17.60;97.10;;;;;;5093702;28;20197;-86
2022/09/08 03:19:23;;;;;;;4.03;1.60;;;17.60;97.50;;;;;;5093552;28;20200;-85
2022/09/08 03:21:49;;;;;;;2.53;1.60;;;17.40;97.50;;;;;;5094002;28;20203;-86
2022/09/08 03:24:17;;;;;;;1.63;1.50;;;17.30;97.70;;;;;;5092928;28;20211;-86
2022/09/08 03:26:44;;;;;;;4.47;1.48;;;17.20;98.10;;;;;;5092415;28;20221;-88
2022/09/08 03:29:12;;;;;;;2.13;1.70;;;17.10;98.40;;;;;;5094469;28;20197;-86
2022/09/08 03:31:39;;;;;;;3.03;1.70;;;17.00;98.60;;;;;;5093038;28;20648;-85
2022/09/08 03:34:06;;;;;;;2.30;1.85;;;17.00;98.80;;;;;;5095290;28;20207;-87
2022/09/08 03:36:41;;;;;;;1.55;1.45;;;17.00;99.20;;;;;;5092978;28;20200;-86
2022/09/08 03:39:08;;;;;;;4.22;1.70;;;17.10;98.90;;;;;;5092143;28;20202;-86
2022/09/08 03:41:35;;;;;;;3.00;1.80;;;17.20;98.70;;;;;;5090951;28;20204;-86
2022/09/08 03:44:02;;;;;;;2.22;1.70;;;17.30;98.00;;;;;;5095330;28;20864;-86
2022/09/08 03:46:30;;;;;;;1.73;1.52;;;17.40;97.50;;;;;;5095785;28;20228;-86
2022/09/08 03:48:57;;;;;;;2.05;1.52;;;17.30;97.40;;;;;;5094376;28;20211;-88
2022/09/08 03:51:25;;;;;;;3.05;1.50;;;17.30;97.70;;;;;;5092646;28;20200;-86
2022/09/08 03:53:53;;;;;;;3.67;1.75;;;17.20;97.90;;;;;;5090924;28;20196;-86
2022/09/08 03:56:20;;;;;;;2.50;1.50;;;17.20;98.00;;;;;;5091684;28;20204;-86
2022/09/08 03:58:47;;;;;;;1.63;1.48;;;17.30;98.00;;;;;;5093114;28;20203;-88
2022/09/08 04:01:16;;;;;;;1.92;1.40;;;17.40;97.50;;;;;;5097830;28;20189;-85
2022/09/08 04:03:45;;;;;;;3.45;1.80;;;17.50;97.50;;;;;;5101861;28;20201;-86
2022/09/08 04:06:12;;;;;;;2.00;1.70;;;17.40;97.50;;;;;;5099159;28;20196;-87
2022/09/08 04:08:39;;;;;;;3.50;1.70;;;17.40;97.50;;;;;;5091277;28;20207;-86
2022/09/08 04:11:11;;;;;;;2.40;1.85;;;17.40;97.90;;;;;;5098337;28;20287;-85
2022/09/08 04:13:39;;;;;;;2.95;1.50;;;17.40;97.80;;;;;;5099941;28;20203;-86
2022/09/08 04:16:06;;;;;;;1.70;1.60;;;17.30;97.80;;;;;;5093137;28;20266;-86
2022/09/08 04:18:33;;;;;;;4.90;1.60;;;17.30;98.30;;;;;;5093405;28;20244;-86
2022/09/08 04:21:03;;;;;;;4.38;1.58;;;17.10;98.50;;;;;;5093072;28;20576;-86
2022/09/08 04:23:30;;;;;;;6.13;1.60;;;17.20;98.80;;;;;;5092563;28;20205;-86
2022/09/08 04:26:07;;;;;;;1.90;1.70;;;17.30;98.80;;;;;;5091228;28;20193;-86
2022/09/08 04:28:35;;;;;;;2.13;1.50;;;17.20;98.30;;;;;;5087172;28;20200;-86
2022/09/08 04:31:05;;;;;;;4.97;1.80;;;17.30;98.30;;;;;;5093075;28;20193;-86
2022/09/08 04:33:32;;;;;;;2.70;1.67;;;17.30;98.20;;;;;;5091446;28;20809;-87
2022/09/08 04:36:05;;;;;;;2.83;1.70;;;17.20;98.40;;;;;;5092662;28;20570;-86
2022/09/08 04:38:31;;;;;;;2.00;1.33;;;17.20;98.40;;;;;;5092424;28;20685;-86
2022/09/08 04:41:03;;;;;;;1.92;1.50;;;17.20;97.90;;;;;;5092971;28;20555;-87
2022/09/08 04:43:31;;;;;;;1.80;1.65;;;17.30;97.90;;;;;;5083715;28;20280;-87
2022/09/08 04:46:02;;;;;;;2.00;1.40;;;17.40;97.50;;;;;;5091666;28;20193;-87
2022/09/08 04:48:31;;;;;;;1.55;1.33;;;17.30;97.40;;;;;;5089380;28;20232;-87
2022/09/08 04:51:02;;;;;;;2.80;1.50;;;17.30;97.40;;;;;;5086136;28;20196;-87
2022/09/08 04:53:30;;;;;;;7.97;6.25;;;17.40;97.50;;;;;;5091255;28;20189;-86
2022/09/08 04:55:58;;;;;;;4.50;1.80;;;17.40;97.30;;;;;;5092821;28;20192;-87
2022/09/08 04:58:25;;;;;;;2.97;1.70;;;17.30;97.40;;;;;;5090352;28;20197;-87
2022/09/08 05:00:51;;;;;;;2.30;1.60;;;17.20;97.40;;;;;;5082500;28;20672;-87
2022/09/08 05:03:18;;;;;;;1.42;1.33;;;17.20;97.40;;;;;;5095960;28;20200;-86
2022/09/08 05:05:45;;;;;;;1.92;1.30;;;17.20;97.40;;;;;;5095220;28;20208;-86
2022/09/08 05:08:13;;;;;;;2.05;1.35;;;17.20;97.40;;;;;;5097856;28;20220;-86
2022/09/08 05:10:40;;;;;;;2.30;1.50;;;17.10;97.40;;;;;;5096578;28;20197;-88
2022/09/08 05:13:07;;;;;;;2.95;2.13;;;17.10;97.40;;;;;;5097201;28;20644;-87
2022/09/08 05:15:33;;;;;;;5.15;2.80;;;17.30;97.40;;;;;;5090951;28;20200;-86
2022/09/08 05:18:06;;;;;;;2.65;2.22;;;17.40;97.10;;;;;;5081575;28;20199;-86
2022/09/08 05:20:33;;;;;;;2.60;1.08;;;17.50;96.70;;;;;;5092522;28;20202;-86
2022/09/08 05:22:59;;;;;;;2.78;1.20;;;17.40;96.60;;;;;;5098139;28;20207;-88
2022/09/08 05:25:28;;;;;;;2.22;1.80;;;17.30;96.90;;;;;;5094260;28;20545;-86
2022/09/08 05:27:55;;;;;;;2.38;1.33;;;17.20;97.20;;;;;;5095996;28;20224;-87
2022/09/08 05:30:22;;;;;;;4.93;1.40;;;17.20;96.90;;;;;;5099426;28;20562;-87
2022/09/08 05:32:49;;;;;;;4.60;2.25;;;17.30;96.80;;;;;;5099646;28;20197;-87
2022/09/08 05:35:16;;;;;;;3.00;2.17;;;17.30;97.30;;;;;;5092321;28;20201;-86
2022/09/08 05:37:42;;;;;;;2.85;2.03;;;17.30;96.60;;;;;;5095337;28;20216;-87
2022/09/08 05:40:11;;;;;;;1.80;1.40;;;17.40;96.20;;;;;;5091339;28;20246;-86
2022/09/08 05:42:39;;;;;;;1.25;1.15;;;17.50;95.40;;;;;;5090507;28;20193;-87
2022/09/08 05:45:08;;;;;;;1.48;1.35;;;17.40;95.70;;;;;;5089572;28;20246;-86
2022/09/08 05:47:35;;;;;;;2.63;0.90;;;17.50;95.10;;;;;;5096898;28;20224;-86
2022/09/08 05:50:06;;;;;;;1.20;1.00;;;17.50;94.90;;;;;;5089131;28;20197;-86
2022/09/08 05:52:33;;;;;;;1.20;1.00;;;17.50;94.40;;;;;;5090805;28;20640;-88
2022/09/08 05:54:59;;;;;;;1.02;0.93;;;17.50;93.40;;;;;;5095611;28;20667;-86
2022/09/08 05:57:28;;;;;;;1.27;1.17;;;17.50;92.50;;;;;;5095002;28;20567;-87
2022/09/08 05:59:57;;;;;;;0.95;0.95;;;17.50;92.00;;;;;;5094776;28;20246;-87
2022/09/08 06:02:23;;;;;;;1.00;1.00;;;17.60;92.10;;;;;;5093426;28;20204;-87
2022/09/08 06:04:50;;;;;;;0.82;0.80;;;17.60;92.10;;;;;;5093696;28;20651;-90
2022/09/08 06:07:17;;;;;;;1.15;1.05;;;17.60;91.40;;;;;;5095821;28;20219;-87
2022/09/08 06:09:44;;;;;;;2.05;0.60;;;17.60;91.70;;;;;;5099566;28;20193;-87
2022/09/08 06:12:10;;;;;;;1.23;1.00;;;17.60;91.00;;;;;;5093964;28;20573;-87
2022/09/08 06:14:37;;;;;;;0.80;0.80;;;17.60;91.50;;;;;;5091291;28;20196;-86
2022/09/08 06:17:06;;;;;;;0.98;0.85;;;17.70;91.20;;;;;;5094363;28;20204;-85
2022/09/08 06:19:33;;;;;;;2.45;1.05;;;17.60;91.20;;;;;;5094285;28;20287;-89
2022/09/08 06:22:00;;;;;;;1.00;1.00;;;17.70;90.30;;;;;;5091704;28;20193;-89
2022/09/08 06:24:29;;;;;;;2.42;0.77;;;17.70;90.20;;;;;;5093576;28;20210;-88
2022/09/08 06:27:03;;;;;;;1.55;1.00;;;17.80;88.70;;;;;;5094238;28;20658;-88
2022/09/08 06:29:54;;;;;;;1.30;0.65;;;17.90;90.00;;;;;;5093454;28;20204;-87
2022/09/08 06:32:27;;;;;;;1.00;0.60;;;17.80;89.30;;;;;;5093294;28;20235;-91
2022/09/08 06:34:59;;;;;;;1.00;1.00;;;17.80;90.10;;;;;;5087004;28;20201;-89
2022/09/08 06:37:33;;;;;;;2.45;0.80;;;17.80;89.30;;;;;;5089522;28;20215;-88
2022/09/08 06:40:10;;;;;;;0.88;0.70;;;17.80;86.90;;;;;;5089668;28;20231;-88
2022/09/08 06:42:44;;;;;;;0.82;0.82;;;17.90;86.80;;;;;;5091306;28;20678;-87
2022/09/08 06:45:19;;;;;;;1.73;1.00;;;17.90;87.10;;;;;;5087187;28;20235;-89
2022/09/08 06:47:55;;;;;;;1.90;0.80;;;18.00;85.70;;;;;;5089067;28;20223;-88
2022/09/08 06:50:22;;;;;;;1.60;1.50;;;18.00;86.30;;;;;;5087933;28;21011;-86
2022/09/08 06:52:52;;;;;;;1.00;0.75;;;18.00;85.10;;;;;;5084926;28;20205;-87
2022/09/08 06:55:29;;;;;;;0.80;0.80;;;18.00;84.90;;;;;;5082592;28;20205;-87
2022/09/08 06:58:08;;;;;;;0.60;0.60;;;17.90;85.60;;;;;;5083232;28;20196;-88
2022/09/08 07:00:43;;;;;;;1.48;1.00;;;17.80;87.10;;;;;;5079833;28;20295;-87
2022/09/08 07:03:34;;;;;;;0.95;0.93;;;17.70;88.90;;;;;;5084623;28;20652;-87
2022/09/08 07:06:06;;;;;;;0.90;0.90;;;17.70;89.20;;;;;;5087726;28;20228;-89
2022/09/08 07:08:59;;;;;;;2.15;1.10;;;17.70;90.10;;;;;;5084461;28;20223;-88
2022/09/08 07:11:40;;;;;;;0.80;0.80;;;17.50;91.00;;;;;;5089746;28;20203;-89
2022/09/08 07:14:21;;;;;;;1.60;1.00;;;17.50;91.40;;;;;;5091378;28;20648;-88
2022/09/08 07:16:52;;;;;;;0.90;0.90;;;17.40;92.00;;;;;;5092566;28;20205;-87
2022/09/08 07:19:23;;;;;;;2.05;0.90;;;17.20;92.80;;;;;;5091487;28;20197;-86
2022/09/08 07:21:55;;;;;;;0.80;0.80;;;17.10;93.30;;;;;;5089422;28;20264;-87
2022/09/08 07:24:26;;;;;;;1.05;0.90;;;17.10;93.70;;;;;;5094842;28;20734;-86
2022/09/08 07:26:57;;;;;;;1.42;0.93;;;17.10;93.80;;;;;;5092100;28;20683;-86
2022/09/08 07:29:29;;;;;;;1.80;1.15;;;17.10;94.00;;;;;;5095381;28;20283;-86
2022/09/08 07:31:57;;;;;;;1.27;0.98;;;16.90;94.80;;;;;;5093144;28;20200;-86
2022/09/08 07:34:27;;;;;;;3.60;1.30;;;17.00;95.50;;;;;;5092623;28;20512;-88
2022/09/08 07:37:03;;;;;;;3.00;1.10;;;16.90;96.40;;;;;;5092151;28;20197;-85
2022/09/08 07:39:38;;;;;;;1.27;1.00;;;16.80;97.30;;;;;;5091816;28;20287;-85
2022/09/08 07:42:06;;;;;;;1.58;1.20;;;16.80;97.30;;;;;;5092764;28;20687;-85
2022/09/08 07:44:34;;;;;;;4.68;1.30;;;16.70;97.30;;;;;;5088126;28;20583;-86
2022/09/08 07:47:33;;;;;;;1.17;1.08;;;16.70;97.90;;;;;;5089928;28;20548;-85
2022/09/08 07:50:12;;;;;;;2.60;1.63;;;16.60;98.00;;;;;;5019597;28;20206;-85
2022/09/08 07:52:50;;;;;;;4.78;3.47;;;16.60;98.50;;;;;;5022064;28;20241;-86
2022/09/08 07:55:27;;;;;;;5.03;3.63;;;16.60;98.60;;;;;;5025205;28;21054;-87
2022/09/08 07:58:06;;;;;;;2.25;1.25;;;16.60;98.70;;;;;;5028084;28;20202;-88
2022/09/08 08:00:39;;;;;;;2.50;1.52;;;16.60;98.50;;;;;;5028862;28;20194;-86
2022/09/08 08:03:25;;;;;;;2.60;1.00;;;16.60;99.50;;;;;;5028165;28;20240;-86
2022/09/08 08:06:03;;;;;;;3.15;2.08;;;16.60;99.10;;;;;;5030691;28;20623;-85
2022/09/08 08:08:39;;;;;;;3.17;2.20;;;16.60;99.30;;;;;;5020592;28;20317;-88
2022/09/08 08:11:12;;;;;;;1.33;1.23;;;16.60;99.00;;;;;;5027931;28;20212;-84
2022/09/08 08:14:07;;;;;;;2.00;1.20;;;16.60;99.10;;;;;;5026628;28;20641;-84
2022/09/08 08:16:50;;;;;;;1.92;1.10;;;16.50;99.20;;;;;;5027739;28;20596;-83
2022/09/08 08:19:52;;;;;;;1.10;0.90;;;16.50;99.40;;;;;;5027065;28;20309;-84
2022/09/08 08:22:36;;;;;;;1.58;1.27;;;16.40;99.30;;;;;;5032922;28;20675;-85
2022/09/08 08:25:18;;;;;;;2.65;1.13;;;16.50;99.90;;;;;;5034804;28;20187;-83
2022/09/08 08:34:31;;;;;;;1.20;1.10;;;16.80;97.80;;;;;;5093579;28;20214;-86
2022/09/08 08:37:03;;;;;;;1.50;1.00;;;16.80;98.00;;;;;;5090640;28;20216;-87
2022/09/08 08:39:33;;;;;;;1.95;1.10;;;17.00;97.40;;;;;;5093218;28;20204;-85
2022/09/08 08:42:20;;;;;;;1.20;1.10;;;17.10;97.40;;;;;;5092100;28;20203;-85
2022/09/08 08:45:01;;;;;;;1.63;1.20;;;17.20;97.70;;;;;;5090804;28;20212;-87
2022/09/08 08:48:11;;;;;;;1.10;1.00;;;17.30;96.70;;;;;;5088657;28;20199;-86
2022/09/08 08:51:00;;;;;;;2.80;1.20;;;17.20;97.20;;;;;;4950480;28;20212;-86
2022/09/08 08:53:49;;;;;;;4.78;1.50;;;17.30;97.40;;;;;;4945095;28;20208;-87
2022/09/08 08:56:28;;;;;;;5.47;1.48;;;17.20;97.40;;;;;;4947951;28;20201;-85
2022/09/08 08:59:30;;;;;;;2.45;1.48;;;17.20;97.80;;;;;;4945521;28;20217;-87
2022/09/08 09:02:14;;;;;;;5.07;1.40;;;17.40;98.10;;;;;;4942512;28;20273;-85
2022/09/08 09:05:14;;;;;;;0.98;0.93;;;17.60;97.50;;;;;;4951614;28;20194;-84
2022/09/08 09:08:13;;;;;;;3.28;1.20;;;17.90;96.00;;;;;;4950927;28;20209;-88
2022/09/08 09:11:07;;;;;;;1.48;1.08;;;17.90;96.20;;;;;;4947028;29;20685;-85
2022/09/08 09:14:21;;;;;;;0.90;0.90;;;17.90;94.70;;;;;;4942851;29;20205;-85
2022/09/08 09:17:07;;;;;;;2.10;0.90;;;17.90;95.20;;;;;;4929470;28;20697;-88
2022/09/08 09:20:09;;;;;;;1.80;0.90;;;18.20;95.30;;;;;;4951461;28;20789;-85
2022/09/08 09:22:52;;;;;;;1.30;0.80;;;18.50;94.00;;;;;;4949309;29;20255;-85
2022/09/08 09:25:28;;;;;;;1.02;0.93;;;18.70;93.00;;;;;;4955075;28;20204;-82
2022/09/08 09:28:10;;;;;;;1.90;0.98;;;18.90;92.40;;;;;;5035650;28;20232;-82
2022/09/08 09:30:49;;;;;;;2.65;0.90;;;19.30;92.50;;;;;;5093668;28;20196;-84
2022/09/08 09:33:56;;;;;;;2.88;1.00;;;19.90;85.60;;;;;;5088554;28;20201;-83
2022/09/08 09:36:45;;;;;;;1.05;0.90;;;20.50;85.10;;;;;;5083935;28;20279;-80
2022/09/08 09:39:30;;;;;;;0.93;0.93;;;21.40;79.90;;;;;;5087232;28;20212;-81
2022/09/08 09:42:27;;;;;;;2.35;1.02;;;22.30;63.50;;;;;;5090901;28;20656;-83
2022/09/08 09:45:20;;;;;;;1.40;1.05;;;22.60;56.00;;;;;;5089492;28;20217;-85
2022/09/08 09:48:21;;;;;;;1.10;1.00;;;22.50;58.20;;;;;;5086454;28;20204;-83
2022/09/08 09:51:10;;;;;;;0.70;0.70;;;22.30;58.00;;;;;;5086443;28;20197;-79
2022/09/08 09:54:02;;;;;;;0.80;0.80;;;22.80;52.20;;;;;;4989892;28;20195;-82
2022/09/08 09:57:10;;;;;;;1.15;1.00;;;23.00;50.20;;;;;;4988418;28;20251;-89
2022/09/08 10:00:14;;;;;;;1.70;0.90;;;22.70;51.20;;;;;;4954496;28;20209;-85
2022/09/08 10:03:29;;;;;;;1.13;1.13;;;22.10;54.20;;;;;;4959335;29;20201;-82
2022/09/08 10:06:24;;;;;;;1.35;0.82;;;21.70;57.50;;;;;;4950110;28;20652;-80
2022/09/08 10:09:31;;;;;;;1.05;0.75;;;21.50;57.30;;;;;;4950108;28;20304;-79
2022/09/08 10:12:28;;;;;;;1.63;0.85;;;21.20;62.90;;;;;;4955033;28;20198;-82
2022/09/08 10:15:31;;;;;;;0.88;0.70;;;20.90;60.50;;;;;;4920408;29;20198;-82
2022/09/08 10:18:30;;;;;;;1.30;0.80;;;20.60;58.30;;;;;;4917209;29;20202;-83
2022/09/08 10:21:38;;;;;;;0.60;0.60;;;20.50;60.80;;;;;;4929423;29;20199;-82
2022/09/08 10:24:46;;;;;;;1.08;1.08;;;20.40;58.20;;;;;;4923738;29;20198;-82
2022/09/08 10:27:51;;;;;;;0.82;0.82;;;20.60;57.50;;;;;;4898601;29;20591;-82
2022/09/08 10:30:52;;;;;;;2.80;0.80;;;20.60;56.40;;;;;;4915311;29;20202;-84
2022/09/08 10:33:49;;;;;;;1.40;0.80;;;20.50;56.30;;;;;;4942982;29;20208;-82
2022/09/08 10:36:19;;;;;;;0.90;0.90;;;20.40;59.10;;;;;;4945400;28;20591;-82
2022/09/08 10:38:57;;;;;;;2.83;0.77;;;20.30;56.80;;;;;;4956098;28;20204;-81
2022/09/08 10:42:10;;;;;;;1.83;0.85;;;20.40;56.20;;;;;;4965505;28;20201;-81
2022/09/08 10:44:51;;;;;;;6.30;2.67;;;20.50;54.90;;;;;;4956528;28;20230;-81
2022/09/08 10:48:11;;;;;;;2.40;1.45;;;20.70;56.50;;;;;;4962075;28;20201;-81
2022/09/08 10:51:20;;;;;;;3.50;1.83;;;20.70;56.50;;;;;;4961988;28;20630;-80
2022/09/08 10:54:07;;;;;;;2.90;1.10;;;20.90;54.50;;;;;;5043608;28;20206;-81
2022/09/08 10:56:39;;;;;;;1.77;0.93;;;20.80;56.60;;;;;;5037538;28;20704;-82
2022/09/08 10:59:36;;;;;;;0.95;0.85;;;20.70;54.40;;;;;;5037396;28;20226;-81
2022/09/08 11:02:13;;;;;;;1.13;0.95;;;20.80;56.60;;;;;;5044677;28;20285;-82
2022/09/08 11:05:30;;;;;;;1.88;1.20;;;21.20;50.00;;;;;;5090560;28;20196;-81
2022/09/08 11:08:26;;;;;;;1.10;0.90;;;21.30;48.90;;;;;;5097848;28;20284;-84
2022/09/08 11:11:24;;;;;;;2.85;1.33;;;21.30;49.20;;;;;;5102381;28;20197;-82
2022/09/08 11:14:04;;;;;;;1.92;0.98;;;21.40;48.30;;;;;;5096666;28;20203;-81
2022/09/08 11:17:09;;;;;;;1.02;1.00;;;21.50;42.50;;;;;;5103805;28;20215;-81
2022/09/08 11:20:12;;;;;;;2.50;1.35;;;21.30;45.00;;;;;;5094245;28;20281;-80
2022/09/08 11:22:55;;;;;;;0.93;0.90;;;21.00;42.50;;;;;;5090120;28;20284;-88
2022/09/08 11:28:58;;;;;;;2.55;0.85;;;20.40;50.20;;;;;;5097730;28;20224;-86
2022/09/08 11:31:41;;;;;;;2.00;1.20;;;20.10;51.90;;;;;;5097248;28;20192;-84
2022/09/08 11:34:44;;;;;;;2.13;1.10;;;20.10;55.40;;;;;;5097702;28;20200;-87
2022/09/08 11:37:49;;;;;;;1.25;0.90;;;20.20;50.60;;;;;;5093723;28;20202;-84
2022/09/08 11:41:03;;;;;;;1.10;1.00;;;20.40;48.80;;;;;;5094513;28;20200;-84
2022/09/08 11:44:14;;;;;;;2.33;1.00;;;20.50;49.10;;;;;;5033476;28;20226;-84
2022/09/08 11:50:34;;;;;;;2.92;1.17;;;20.10;47.60;;;;;;4960164;28;20317;-82
2022/09/08 11:53:15;;;;;;;1.20;1.00;;;19.80;54.10;;;;;;4977267;28;20201;-82
2022/09/08 11:56:35;;;;;;;1.42;1.00;;;19.70;55.60;;;;;;4979997;28;20195;-83
2022/09/08 11:59:23;;;;;;;3.00;1.08;;;19.50;55.40;;;;;;4984032;28;20255;-82
2022/09/08 12:05:29;;;;;;;1.52;0.98;;;19.90;54.60;;;;;;4978884;28;20203;-82
2022/09/08 12:08:20;;;;;;;1.73;1.00;;;20.10;56.00;;;;;;4983303;28;20215;-82
2022/09/08 12:11:12;;;;;;;1.85;1.13;;;20.10;54.90;;;;;;4979319;28;20200;-83
2022/09/08 12:13:47;;;;;;;3.03;1.35;;;20.10;55.60;;;;;;4977202;28;20200;-83
2022/09/08 12:16:53;;;;;;;1.13;1.02;;;20.30;54.80;;;;;;4972827;28;20197;-82
2022/09/08 12:19:51;;;;;;;2.30;1.20;;;20.20;53.60;;;;;;5006468;28;20206;-80
2022/09/08 12:22:38;;;;;;;1.05;0.88;;;20.40;51.00;;;;;;5036728;28;20193;-81
2022/09/08 12:25:45;;;;;;;1.60;1.00;;;20.60;49.20;;;;;;5096790;28;20563;-80
2022/09/08 12:28:30;;;;;;;1.05;0.95;;;20.70;51.30;;;;;;5096537;28;20196;-81
2022/09/08 12:31:42;;;;;;;0.90;0.90;;;20.70;49.40;;;;;;5099399;28;20200;-79
2022/09/08 12:34:41;;;;;;;4.47;0.90;;;20.60;51.10;;;;;;5050328;28;20200;-88
2022/09/08 12:37:27;;;;;;;0.80;0.80;;;20.50;56.30;;;;;;5047490;28;20252;-80
2022/09/08 12:40:38;;;;;;;1.10;1.00;;;20.80;53.00;;;;;;5051222;28;20204;-80
2022/09/08 12:43:17;;;;;;;1.70;1.20;;;21.20;46.00;;;;;;5033875;28;20193;-81
2022/09/08 12:46:31;;;;;;;1.25;0.98;;;21.90;45.00;;;;;;5052716;28;20736;-87
2022/09/08 12:49:22;;;;;;;1.15;1.00;;;22.40;41.30;;;;;;4972028;28;20236;-87
2022/09/08 12:51:53;;;;;;;0.98;0.90;;;22.10;42.00;;;;;;5047711;28;20189;-82
2022/09/08 12:54:38;;;;;;;1.13;1.02;;;21.90;44.10;;;;;;5057841;28;20204;-83
2022/09/08 12:57:46;;;;;;;2.95;1.00;;;22.20;41.50;;;;;;5052469;28;20203;-84
2022/09/08 13:00:18;;;;;;;1.60;0.98;;;22.30;43.80;;;;;;5054366;28;20286;-84
2022/09/08 13:03:35;;;;;;;1.05;0.90;;;22.50;40.60;;;;;;5053934;28;20201;-84
2022/09/08 13:06:44;;;;;;;1.33;1.00;;;22.70;39.50;;;;;;4968979;28;20201;-85
2022/09/08 13:09:23;;;;;;;1.05;0.90;;;23.00;34.60;;;;;;4958475;28;20223;-84
2022/09/08 13:12:23;;;;;;;1.38;1.02;;;23.00;37.00;;;;;;5011013;28;20230;-83
2022/09/08 13:15:03;;;;;;;2.13;1.00;;;23.00;36.50;;;;;;5016889;28;20220;-83
2022/09/08 13:17:38;;;;;;;1.35;0.90;;;22.70;34.30;;;;;;5020853;28;20203;-85
2022/09/08 13:20:31;;;;;;;1.05;0.93;;;22.80;37.20;;;;;;5016483;28;20199;-83
2022/09/08 13:23:19;;;;;;;2.30;0.90;;;22.80;35.20;;;;;;5012364;28;20560;-84
2022/09/08 13:25:55;;;;;;;1.92;0.98;;;22.60;37.00;;;;;;5016076;28;20195;-85
2022/09/08 13:28:56;;;;;;;1.33;1.20;;;22.40;39.90;;;;;;5013546;28;20211;-87
2022/09/08 13:31:44;;;;;;;0.98;0.98;;;22.40;42.80;;;;;;5021343;28;20199;-84
2022/09/08 13:34:54;;;;;;;1.00;0.90;;;22.30;41.10;;;;;;5021859;28;20199;-86
2022/09/08 13:37:49;;;;;;;1.63;1.08;;;22.20;36.90;;;;;;4922589;29;20214;-86
2022/09/08 13:40:31;;;;;;;3.53;1.10;;;22.00;41.60;;;;;;4927843;29;20337;-87
2022/09/08 13:43:41;;;;;;;0.88;0.88;;;21.70;44.30;;;;;;4999054;28;20210;-87
2022/09/08 13:46:18;;;;;;;1.00;1.00;;;21.40;48.60;;;;;;5001962;28;20234;-89
2022/09/08 13:48:56;;;;;;;3.03;1.02;;;21.30;50.10;;;;;;5002013;28;20199;-85
2022/09/08 13:51:43;;;;;;;1.85;1.25;;;21.60;50.10;;;;;;5000689;28;20211;-84
2022/09/08 13:54:53;;;;;;;1.10;1.00;;;22.00;43.80;;;;;;5001330;28;20289;-87
2022/09/08 13:57:45;;;;;;;2.28;1.30;;;22.50;37.00;;;;;;5003504;28;20231;-87
2022/09/08 14:00:21;;;;;;;1.02;1.00;;;22.80;34.40;;;;;;4999970;28;20203;-86
2022/09/08 14:02:56;;;;;;;2.63;1.38;;;23.10;33.10;;;;;;5000812;28;20211;-84
2022/09/08 14:05:31;;;;;;;1.77;1.17;;;23.20;28.50;;;;;;5000754;28;20254;-83
2022/09/08 14:08:03;;;;;;;2.08;1.10;;;23.30;28.00;;;;;;4998013;28;20212;-86
2022/09/08 14:14:25;;;;;;;1.48;0.95;;;23.20;25.80;;;;;;5079229;28;20234;-84
2022/09/08 14:17:02;;;;;;;1.40;1.15;;;23.10;27.00;;;;;;5106795;28;20197;-85